Adona, Arkansas
Current Conditions -  °F | °C
As of 5:53 PM on Thursday 18 Dec 2014 (Local Time) from KRUE Reporting Station
Overcast Overcast  
Wind Chill: 41°   Ceiling: 800
Heat Index: 41°   Visibility: 9mi
Dew Point: 37°   Wind: 0mph
Humidity: 86%   Direction: NA
Pressure: 30.19"   Gusts: NA
Location:  35.04°N, 92.9°W
Report Text: KRUE 182353Z AUTO 00000KT 9SM OVC008 05/03 A3019 RMK AO2 SLP223 T00500028 10050 20039 53012
Loading
Personal Weather Stations






























Interactive Weather Map New forecast layout! Learn more

10-Day Weather Forecast

Advertisements
Track Severe Weather on mobile